Time;durP1;ratioP1;P1;durP2;ratioP2;P2;SDS_P1;SDS_P2;PMS_P1;PMS_P2;Temp;Humidity;BMP_temperature;BMP_pressure;BME280_temperature;BME280_humidity;BME280_pressure;Samples;Min_cycle;Max_cycle;Signal;HPM_P1;HPM_P2
2022/06/30 00:01:11;;;;;;;;;;;21.00;99.90;;;;;;5081153;27;36942;-62
2022/06/30 00:03:38;;;;;;;;;;;21.00;99.90;;;;;;5082336;27;37446;-62
2022/06/30 00:06:05;;;;;;;;;;;21.00;99.90;;;;;;5083194;28;35254;-61
2022/06/30 00:08:32;;;;;;;;;;;21.00;99.90;;;;;;5081876;27;38401;-62
2022/06/30 00:11:06;;;;;;;;;;;20.90;99.90;;;;;;5082489;27;38298;-62
2022/06/30 00:13:35;;;;;;;;;;;20.90;99.90;;;;;;5081621;27;38625;-61
2022/06/30 00:16:02;;;;;;;;;;;20.80;99.90;;;;;;5081909;27;36686;-62
2022/06/30 00:18:29;;;;;;;;;;;20.80;99.90;;;;;;5081535;27;37560;-62
2022/06/30 00:20:56;;;;;;;;;;;20.70;99.90;;;;;;5083851;27;37160;-62
2022/06/30 00:23:23;;;;;;;;;;;20.60;99.90;;;;;;5081509;27;38132;-62
2022/06/30 00:25:50;;;;;;;;;;;20.60;99.90;;;;;;5081822;27;36227;-61
2022/06/30 00:28:18;;;;;;;;;;;20.60;99.90;;;;;;5082002;27;38791;-62
2022/06/30 00:30:47;;;;;;;;;;;20.50;99.90;;;;;;5081632;27;38168;-62
2022/06/30 00:33:14;;;;;;;;;;;20.50;99.90;;;;;;5081447;27;38656;-62
2022/06/30 00:35:41;;;;;;;;;;;20.40;99.50;;;;;;5080654;27;37295;-62
2022/06/30 00:38:08;;;;;;;;;;;20.40;99.10;;;;;;5081653;27;38271;-54
2022/06/30 00:40:36;;;;;;;;;;;20.30;99.00;;;;;;5080073;27;39906;-55
2022/06/30 00:43:03;;;;;;;;;;;20.30;99.00;;;;;;5080512;27;36501;-54
2022/06/30 00:45:31;;;;;;;;;;;20.30;98.70;;;;;;5082309;28;36797;-54
2022/06/30 00:47:59;;;;;;;;;;;20.30;98.70;;;;;;5081727;27;37806;-54
2022/06/30 00:50:27;;;;;;;;;;;20.30;98.80;;;;;;5081523;27;38276;-54
2022/06/30 00:52:55;;;;;;;;;;;20.20;98.80;;;;;;5080912;27;39017;-54
2022/06/30 00:55:22;;;;;;;;;;;20.20;98.90;;;;;;5081353;27;35866;-54
2022/06/30 00:57:49;;;;;;;;;;;20.10;98.90;;;;;;5081918;27;38528;-54
2022/06/30 01:00:17;;;;;;;;;;;20.10;99.10;;;;;;5081870;27;37204;-54
2022/06/30 01:02:44;;;;;;;;;;;20.00;99.20;;;;;;5079933;27;37740;-54
2022/06/30 01:05:13;;;;;;;;;;;20.00;99.50;;;;;;5082505;27;36550;-54
2022/06/30 01:07:40;;;;;;;;;;;20.00;99.40;;;;;;5081086;27;39494;-54
2022/06/30 01:12:52;;;;;;;;;;;20.00;99.60;;;;;;5077926;28;38974;-54
2022/06/30 01:15:20;;;;;;;;;;;20.00;99.60;;;;;;5078664;27;35146;-54
2022/06/30 01:17:47;;;;;;;;;;;20.00;99.60;;;;;;5081941;27;37385;-54
2022/06/30 01:20:16;;;;;;;;;;;19.90;99.50;;;;;;5081463;27;39634;-54
2022/06/30 01:22:45;;;;;;;;;;;19.90;99.60;;;;;;5081155;27;38443;-54
2022/06/30 01:25:12;;;;;;;;;;;19.90;99.40;;;;;;5079612;27;36445;-54
2022/06/30 01:27:39;;;;;;;;;;;20.00;99.60;;;;;;5081601;28;38426;-54
2022/06/30 01:30:06;;;;;;;;;;;19.90;99.40;;;;;;5081048;27;39517;-54
2022/06/30 01:32:33;;;;;;;;;;;20.00;99.60;;;;;;5082198;27;37493;-54
2022/06/30 01:35:01;;;;;;;;;;;20.00;99.70;;;;;;5081786;27;38069;-53
2022/06/30 01:37:28;;;;;;;;;;;20.00;99.40;;;;;;5080907;27;38725;-54
2022/06/30 01:39:56;;;;;;;;;;;20.00;99.30;;;;;;5081582;27;36900;-53
2022/06/30 01:42:23;;;;;;;;;;;20.00;99.20;;;;;;5081032;27;39113;-54
2022/06/30 01:44:50;;;;;;;;;;;20.00;99.30;;;;;;5081244;27;36294;-62
2022/06/30 01:47:17;;;;;;;;;;;20.00;99.30;;;;;;5079207;27;37688;-62
2022/06/30 01:49:45;;;;;;;;;;;20.00;99.10;;;;;;5082558;27;38923;-62
2022/06/30 01:52:12;;;;;;;;;;;20.00;99.00;;;;;;5080788;28;37373;-62
2022/06/30 01:54:39;;;;;;;;;;;20.00;99.10;;;;;;5081553;27;39487;-62
2022/06/30 01:57:07;;;;;;;;;;;20.00;99.20;;;;;;5080170;27;37671;-62
2022/06/30 01:59:34;;;;;;;;;;;20.00;99.30;;;;;;5079527;28;38236;-62
2022/06/30 02:02:01;;;;;;;;;;;20.00;99.10;;;;;;5080293;27;38827;-61
2022/06/30 02:07:13;;;;;;;;;;;19.90;99.00;;;;;;5080871;28;38479;-61
2022/06/30 02:09:40;;;;;;;;;;;19.90;99.10;;;;;;5080541;27;39271;-62
2022/06/30 02:14:54;;;;;;;;;;;19.90;99.10;;;;;;5080574;28;37411;-61
2022/06/30 02:17:21;;;;;;;;;;;19.90;99.10;;;;;;5081141;27;38797;-62
2022/06/30 02:19:48;;;;;;;;;;;19.90;99.20;;;;;;5081496;27;37652;-61
2022/06/30 02:22:15;;;;;;;;;;;19.80;99.10;;;;;;5081002;27;39676;-62
2022/06/30 02:24:42;;;;;;;;;;;19.80;99.20;;;;;;5080980;27;36574;-62
2022/06/30 02:27:11;;;;;;;;;;;19.80;99.30;;;;;;5080480;27;37671;-61
2022/06/30 02:29:38;;;;;;;;;;;19.70;99.30;;;;;;5081825;27;38411;-61
2022/06/30 02:32:06;;;;;;;;;;;19.70;99.50;;;;;;5081714;27;36498;-61
2022/06/30 02:34:33;;;;;;;;;;;19.70;99.60;;;;;;5081322;27;39563;-62
2022/06/30 02:37:00;;;;;;;;;;;19.60;99.70;;;;;;5080237;27;38243;-62
2022/06/30 02:39:27;;;;;;;;;;;19.60;99.70;;;;;;5080258;27;37002;-62
2022/06/30 02:41:54;;;;;;;;;;;19.60;99.80;;;;;;5080202;27;38515;-62
2022/06/30 02:44:22;;;;;;;;;;;19.60;99.70;;;;;;5081416;27;36034;-61
2022/06/30 02:46:50;;;;;;;;;;;19.60;99.80;;;;;;5080367;27;38588;-62
2022/06/30 02:49:17;;;;;;;;;;;19.60;99.80;;;;;;5080476;27;40170;-62
2022/06/30 02:51:45;;;;;;;;;;;19.50;99.80;;;;;;5081349;27;38220;-54
2022/06/30 02:54:12;;;;;;;;;;;19.50;99.80;;;;;;5080978;28;37747;-54
2022/06/30 02:56:39;;;;;;;;;;;19.50;99.90;;;;;;5079749;28;37970;-54
2022/06/30 02:59:06;;;;;;;;;;;19.50;99.80;;;;;;5080152;28;38204;-54
2022/06/30 03:01:34;;;;;;;;;;;19.50;99.90;;;;;;5079494;27;36698;-54
2022/06/30 03:04:02;;;;;;;;;;;19.50;99.90;;;;;;5081382;27;37282;-54
2022/06/30 03:06:29;;;;;;;;;;;19.40;99.90;;;;;;5082739;27;37469;-55
2022/06/30 03:08:56;;;;;;;;;;;19.40;99.90;;;;;;5083943;27;38475;-53
2022/06/30 03:11:23;;;;;;;;;;;19.40;99.90;;;;;;5083551;27;38365;-54
2022/06/30 03:13:51;;;;;;;;;;;19.30;99.90;;;;;;5084672;27;37299;-54
2022/06/30 03:16:18;;;;;;;;;;;19.20;99.90;;;;;;5084394;27;38142;-54
2022/06/30 03:18:47;;;;;;;;;;;19.20;99.90;;;;;;5082146;28;37397;-54
2022/06/30 03:21:14;;;;;;;;;;;19.10;99.90;;;;;;5084255;27;38937;-54
2022/06/30 03:23:41;;;;;;;;;;;19.10;99.90;;;;;;5083285;27;36342;-54
2022/06/30 03:26:08;;;;;;;;;;;19.10;99.90;;;;;;5083790;27;37510;-52
2022/06/30 03:28:35;;;;;;;;;;;19.10;99.90;;;;;;5083476;27;40087;-54
2022/06/30 03:31:02;;;;;;;;;;;19.10;99.90;;;;;;5083794;27;37333;-53
2022/06/30 03:33:29;;;;;;;;;;;19.10;99.90;;;;;;5083847;27;36740;-52
2022/06/30 03:35:58;;;;;;;;;;;19.10;99.90;;;;;;5083096;28;39036;-52
2022/06/30 03:38:25;;;;;;;;;;;19.10;99.90;;;;;;5083826;27;39172;-54
2022/06/30 03:40:52;;;;;;;;;;;19.10;99.90;;;;;;5083619;27;39089;-54
2022/06/30 03:43:21;;;;;;;;;;;19.10;99.90;;;;;;5083928;28;36495;-54
2022/06/30 03:45:48;;;;;;;;;;;19.10;99.90;;;;;;5082213;27;39553;-53
2022/06/30 03:48:15;;;;;;;;;;;19.20;99.90;;;;;;5082754;27;36914;-54
2022/06/30 03:50:42;;;;;;;;;;;19.20;99.90;;;;;;5081573;27;37330;-53
2022/06/30 03:53:10;;;;;;;;;;;19.20;99.90;;;;;;5084020;27;34870;-54
2022/06/30 03:55:39;;;;;;;;;;;19.20;99.90;;;;;;5083013;27;36618;-53
2022/06/30 03:58:06;;;;;;;;;;;19.20;99.90;;;;;;5083388;27;37252;-54
2022/06/30 04:00:34;;;;;;;;;;;19.30;99.90;;;;;;5081553;28;40052;-54
2022/06/30 04:03:01;;;;;;;;;;;19.30;99.90;;;;;;5082224;27;37460;-54
2022/06/30 04:05:29;;;;;;;;;;;19.40;99.90;;;;;;5082801;27;36485;-62
2022/06/30 04:07:56;;;;;;;;;;;19.50;99.90;;;;;;5083289;27;38573;-61
2022/06/30 04:10:24;;;;;;;;;;;19.50;99.90;;;;;;5082869;27;38291;-62
2022/06/30 04:12:51;;;;;;;;;;;19.60;99.90;;;;;;5083198;27;36154;-62
2022/06/30 04:15:18;;;;;;;;;;;19.70;99.90;;;;;;5083145;27;37201;-53
2022/06/30 04:17:46;;;;;;;;;;;19.80;99.90;;;;;;5083962;27;39252;-53
2022/06/30 04:20:16;;;;;;;;;;;19.90;99.80;;;;;;5082697;27;39025;-53
2022/06/30 04:22:44;;;;;;;;;;;19.90;99.70;;;;;;5081901;27;36584;-53
2022/06/30 04:25:11;;;;;;;;;;;20.00;99.70;;;;;;5082681;27;37504;-54
2022/06/30 04:27:43;;;;;;;;;;;20.10;99.60;;;;;;5083196;27;38159;-54
2022/06/30 04:30:10;;;;;;;;;;;20.10;99.40;;;;;;5081867;27;36295;-54
2022/06/30 04:32:40;;;;;;;;;;;20.20;99.30;;;;;;5082347;27;36453;-54
2022/06/30 04:35:08;;;;;;;;;;;20.30;99.20;;;;;;5082085;27;39321;-54
2022/06/30 04:37:35;;;;;;;;;;;20.30;98.90;;;;;;5081202;27;40712;-54
2022/06/30 04:42:48;;;;;;;;;;;20.50;98.60;;;;;;5083600;28;37130;-54
2022/06/30 04:45:15;;;;;;;;;;;20.60;98.70;;;;;;5081457;27;40053;-54
2022/06/30 04:47:43;;;;;;;;;;;20.70;98.20;;;;;;5082453;27;39960;-54
2022/06/30 04:50:10;;;;;;;;;;;20.70;98.50;;;;;;5080925;27;36533;-54
2022/06/30 04:52:37;;;;;;;;;;;20.80;98.40;;;;;;5083065;27;36172;-54
2022/06/30 04:55:04;;;;;;;;;;;20.90;97.80;;;;;;5079596;28;36577;-54
2022/06/30 04:57:31;;;;;;;;;;;20.90;97.70;;;;;;5082068;27;38307;-53
2022/06/30 05:00:00;;;;;;;;;;;20.90;97.90;;;;;;5081424;27;37461;-54
2022/06/30 05:02:27;;;;;;;;;;;21.00;97.80;;;;;;5081679;27;37155;-54
2022/06/30 05:04:54;;;;;;;;;;;21.00;97.60;;;;;;5082543;27;37225;-54
2022/06/30 05:07:21;;;;;;;;;;;21.10;97.60;;;;;;5080803;27;38532;-54
2022/06/30 05:09:48;;;;;;;;;;;21.30;97.00;;;;;;5082151;27;37640;-54
2022/06/30 05:12:16;;;;;;;;;;;21.40;97.20;;;;;;5082649;27;36421;-54
2022/06/30 05:14:45;;;;;;;;;;;21.60;97.00;;;;;;5082675;27;37655;-54
2022/06/30 05:17:14;;;;;;;;;;;21.80;96.70;;;;;;5078757;27;39163;-54
2022/06/30 05:19:41;;;;;;;;;;;22.00;96.40;;;;;;5081075;27;38144;-55
2022/06/30 05:22:08;;;;;;;;;;;22.00;96.20;;;;;;5082119;28;35050;-54
2022/06/30 05:27:19;;;;;;;;;;;22.00;96.20;;;;;;5083476;28;39103;-55
2022/06/30 05:29:47;;;;;;;;;;;22.00;95.70;;;;;;5082079;27;37026;-62
2022/06/30 05:32:15;;;;;;;;;;;22.00;95.90;;;;;;5082898;27;35194;-62
2022/06/30 05:34:42;;;;;;;;;;;22.00;95.80;;;;;;5082076;27;37540;-62
2022/06/30 05:37:09;;;;;;;;;;;22.10;95.60;;;;;;5082008;27;38731;-62
2022/06/30 05:39:36;;;;;;;;;;;22.10;96.20;;;;;;5082693;27;37484;-61
2022/06/30 05:42:03;;;;;;;;;;;22.20;96.10;;;;;;5083086;27;36955;-62
2022/06/30 05:44:30;;;;;;;;;;;22.20;95.80;;;;;;5082506;28;36508;-62
2022/06/30 05:46:57;;;;;;;;;;;22.20;95.60;;;;;;5081821;28;38923;-61
2022/06/30 05:49:30;;;;;;;;;;;22.20;95.20;;;;;;5081265;27;38120;-61
2022/06/30 05:51:57;;;;;;;;;;;22.30;95.40;;;;;;5079973;27;36963;-55
2022/06/30 05:54:24;;;;;;;;;;;22.30;96.10;;;;;;5082153;28;36669;-55
2022/06/30 05:56:51;;;;;;;;;;;22.30;95.60;;;;;;5080820;27;39056;-55
2022/06/30 05:59:19;;;;;;;;;;;22.40;96.10;;;;;;5081533;27;36377;-55
2022/06/30 06:01:46;;;;;;;;;;;22.40;96.10;;;;;;5082074;27;37572;-54
2022/06/30 06:04:13;;;;;;;;;;;22.50;95.90;;;;;;5081507;27;37902;-55
2022/06/30 06:06:41;;;;;;;;;;;22.60;96.20;;;;;;5082323;27;37734;-54
2022/06/30 06:09:08;;;;;;;;;;;22.60;96.20;;;;;;5038692;28;37662;-55
2022/06/30 06:11:36;;;;;;;;;;;22.70;95.90;;;;;;5038099;28;36474;-55
2022/06/30 06:14:03;;;;;;;;;;;22.70;95.90;;;;;;5036349;28;39149;-55
2022/06/30 06:16:30;;;;;;;;;;;22.80;96.20;;;;;;5035589;28;38160;-55
2022/06/30 06:18:57;;;;;;;;;;;22.90;96.40;;;;;;5037360;28;37502;-55
2022/06/30 06:21:24;;;;;;;;;;;22.90;96.00;;;;;;5037094;28;36273;-55
2022/06/30 06:23:52;;;;;;;;;;;22.90;96.00;;;;;;5037642;28;36484;-55
2022/06/30 06:26:19;;;;;;;;;;;22.90;95.50;;;;;;5036488;28;37411;-55
2022/06/30 06:31:32;;;;;;;;;;;23.00;96.00;;;;;;5035866;28;36349;-55
2022/06/30 06:33:59;;;;;;;;;;;23.10;95.70;;;;;;5037626;28;38395;-54
2022/06/30 06:36:27;;;;;;;;;;;23.20;95.10;;;;;;5036243;28;39677;-55
2022/06/30 06:38:57;;;;;;;;;;;23.20;95.00;;;;;;5039199;28;36700;-55
2022/06/30 06:41:24;;;;;;;;;;;23.20;95.10;;;;;;5039237;28;37933;-55
2022/06/30 06:43:51;;;;;;;;;;;23.20;94.20;;;;;;5040364;28;36213;-55
2022/06/30 06:46:18;;;;;;;;;;;23.20;93.80;;;;;;5039652;28;38484;-55
2022/06/30 06:48:45;;;;;;;;;;;23.20;94.90;;;;;;5039115;28;38838;-55
2022/06/30 06:51:13;;;;;;;;;;;23.20;94.40;;;;;;5041754;28;35964;-55
2022/06/30 06:53:40;;;;;;;;;;;23.20;94.80;;;;;;5039819;27;38000;-55
2022/06/30 06:56:08;;;;;;;;;;;23.30;94.30;;;;;;5040533;28;40157;-55
2022/06/30 06:58:35;;;;;;;;;;;23.30;94.20;;;;;;5040048;28;37197;-55
2022/06/30 07:01:04;;;;;;;;;;;23.40;95.20;;;;;;5039016;28;37642;-55
2022/06/30 07:03:32;;;;;;;;;;;23.40;94.40;;;;;;5039118;28;37620;-55
2022/06/30 07:05:59;;;;;;;;;;;23.40;94.80;;;;;;5039299;28;38274;-55
2022/06/30 07:08:26;;;;;;;;;;;23.40;94.00;;;;;;5070994;28;37840;-55
2022/06/30 07:10:55;;;;;;;;;;;23.40;94.20;;;;;;5083752;28;36312;-55
2022/06/30 07:13:23;;;;;;;;;;;23.40;94.80;;;;;;5083354;27;38200;-55
2022/06/30 07:15:50;;;;;;;;;;;23.50;96.00;;;;;;5083741;27;38427;-55
2022/06/30 07:18:18;;;;;;;;;;;23.60;95.60;;;;;;5083686;27;36421;-55
2022/06/30 07:20:45;;;;;;;;;;;23.70;94.90;;;;;;5083802;27;36139;-55
2022/06/30 07:23:12;;;;;;;;;;;23.70;94.50;;;;;;5085017;27;37473;-55
2022/06/30 07:25:39;;;;;;;;;;;23.70;94.80;;;;;;5083302;27;38977;-55
2022/06/30 07:28:06;;;;;;;;;;;23.70;94.70;;;;;;5084918;28;36441;-54
2022/06/30 07:30:34;;;;;;;;;;;23.70;94.80;;;;;;5083944;28;37678;-54
2022/06/30 07:33:01;;;;;;;;;;;23.70;94.30;;;;;;5082060;28;38679;-55
2022/06/30 07:35:28;;;;;;;;;;;23.80;95.40;;;;;;5083177;27;39623;-55
2022/06/30 07:37:56;;;;;;;;;;;23.90;95.50;;;;;;5082784;27;38474;-55
2022/06/30 07:40:23;;;;;;;;;;;23.90;94.50;;;;;;5081672;27;37646;-55
2022/06/30 07:42:51;;;;;;;;;;;24.00;95.10;;;;;;5078749;27;38407;-54
2022/06/30 07:45:21;;;;;;;;;;;24.00;95.40;;;;;;5081508;27;39411;-55
2022/06/30 07:47:51;;;;;;;;;;;24.10;94.80;;;;;;5079758;27;38506;-55
2022/06/30 07:50:18;;;;;;;;;;;24.20;95.20;;;;;;5078421;27;37349;-55
2022/06/30 07:52:45;;;;;;;;;;;24.20;94.50;;;;;;5081020;28;37521;-55
2022/06/30 07:55:12;;;;;;;;;;;24.20;94.40;;;;;;5081544;28;39607;-55
2022/06/30 07:57:42;;;;;;;;;;;24.30;95.50;;;;;;5080797;28;36318;-55
2022/06/30 08:00:10;;;;;;;;;;;24.30;96.00;;;;;;5080617;27;36783;-55
2022/06/30 08:02:37;;;;;;;;;;;24.40;94.60;;;;;;5081899;27;37535;-55
2022/06/30 08:05:05;;;;;;;;;;;24.40;95.80;;;;;;5081470;27;39825;-55
2022/06/30 08:07:32;;;;;;;;;;;24.50;95.30;;;;;;5082138;27;39318;-55
2022/06/30 08:09:59;;;;;;;;;;;24.60;95.30;;;;;;5082238;27;36944;-55
2022/06/30 08:12:27;;;;;;;;;;;24.60;95.00;;;;;;5081631;27;39574;-55
2022/06/30 08:14:54;;;;;;;;;;;24.60;94.90;;;;;;5081266;27;38976;-55
2022/06/30 08:17:21;;;;;;;;;;;24.70;95.40;;;;;;5082128;27;37571;-55
2022/06/30 08:19:48;;;;;;;;;;;24.70;95.50;;;;;;5082261;27;37052;-55
2022/06/30 08:22:16;;;;;;;;;;;24.90;94.20;;;;;;5082768;27;36443;-55
2022/06/30 08:24:43;;;;;;;;;;;24.90;94.40;;;;;;5081243;27;37848;-55
2022/06/30 08:27:10;;;;;;;;;;;24.90;94.40;;;;;;5081505;27;37544;-55
2022/06/30 08:29:37;;;;;;;;;;;25.00;94.50;;;;;;5081778;27;36232;-55
2022/06/30 08:32:05;;;;;;;;;;;25.00;94.20;;;;;;5081853;27;38735;-55
2022/06/30 08:34:33;;;;;;;;;;;25.10;95.40;;;;;;5081678;27;39320;-55
2022/06/30 08:37:00;;;;;;;;;;;25.20;94.80;;;;;;5082149;27;36445;-55
2022/06/30 08:42:13;;;;;;;;;;;25.40;95.10;;;;;;5082017;28;39060;-54
2022/06/30 08:44:42;;;;;;;;;;;25.40;95.00;;;;;;5081036;27;38796;-55
2022/06/30 08:47:09;;;;;;;;;;;25.50;94.50;;;;;;5081183;27;36391;-55
2022/06/30 08:49:36;;;;;;;;;;;25.60;94.80;;;;;;5081821;28;36360;-55
2022/06/30 08:52:05;;;;;;;;;;;25.60;94.40;;;;;;5081582;27;36614;-55
2022/06/30 08:54:36;;;;;;;;;;;25.60;94.60;;;;;;5083054;27;38927;-55
2022/06/30 08:57:03;;;;;;;;;;;25.70;93.60;;;;;;5079865;27;39587;-55
2022/06/30 08:59:30;;;;;;;;;;;25.70;94.10;;;;;;5080146;27;36839;-55
2022/06/30 09:01:57;;;;;;;;;;;25.80;94.00;;;;;;5079917;27;36817;-55
2022/06/30 09:04:24;;;;;;;;;;;25.80;93.60;;;;;;5081033;27;38479;-55
2022/06/30 09:06:51;;;;;;;;;;;25.80;93.80;;;;;;5080861;28;36431;-55
2022/06/30 09:09:19;;;;;;;;;;;25.90;94.10;;;;;;5079738;27;37470;-55
2022/06/30 09:11:55;;;;;;;;;;;25.90;94.10;;;;;;5081518;27;38533;-55
2022/06/30 09:14:31;;;;;;;;;;;25.90;94.30;;;;;;5082844;27;38588;-55
2022/06/30 09:16:59;;;;;;;;;;;26.10;94.40;;;;;;5080983;27;37476;-55
2022/06/30 09:19:26;;;;;;;;;;;26.20;94.60;;;;;;5082054;27;36241;-55
2022/06/30 09:22:02;;;;;;;;;;;26.20;93.80;;;;;;5082583;28;38909;-55
2022/06/30 09:24:29;;;;;;;;;;;26.30;94.60;;;;;;5081877;27;38827;-55
2022/06/30 09:27:09;;;;;;;;;;;26.40;93.90;;;;;;5081621;27;38125;-55
2022/06/30 09:29:45;;;;;;;;;;;26.40;93.70;;;;;;5081388;27;37177;-55
2022/06/30 09:32:12;;;;;;;;;;;26.40;94.20;;;;;;5081289;27;36664;-55
2022/06/30 09:34:40;;;;;;;;;;;26.50;94.40;;;;;;5081148;27;39341;-55
2022/06/30 09:37:15;;;;;;;;;;;26.70;94.40;;;;;;5080769;27;37850;-55
2022/06/30 09:39:43;;;;;;;;;;;26.80;93.40;;;;;;5081200;27;36372;-55
2022/06/30 09:42:11;;;;;;;;;;;26.80;93.20;;;;;;5081146;27;38559;-55
2022/06/30 09:44:39;;;;;;;;;;;26.90;93.20;;;;;;5081275;27;39190;-55
2022/06/30 09:47:08;;;;;;;;;;;26.90;92.60;;;;;;5081011;27;37393;-55
2022/06/30 09:49:36;;;;;;;;;;;26.90;93.70;;;;;;5080953;28;37944;-55
2022/06/30 09:52:04;;;;;;;;;;;27.00;93.20;;;;;;5080772;27;38384;-55
2022/06/30 09:54:32;;;;;;;;;;;27.10;92.60;;;;;;5081789;28;38733;-55
2022/06/30 09:57:03;;;;;;;;;;;27.10;92.90;;;;;;5080100;27;38171;-55
2022/06/30 09:59:31;;;;;;;;;;;27.20;91.80;;;;;;5081214;27;36364;-55
2022/06/30 10:01:59;;;;;;;;;;;27.20;92.70;;;;;;5080582;28;37988;-55
2022/06/30 10:04:26;;;;;;;;;;;27.20;93.30;;;;;;5080574;28;39446;-55
2022/06/30 10:06:53;;;;;;;;;;;27.20;92.50;;;;;;5081220;27;37029;-55
2022/06/30 10:09:21;;;;;;;;;;;27.10;92.50;;;;;;5080609;27;36247;-55
2022/06/30 10:11:50;;;;;;;;;;;27.00;93.80;;;;;;5080696;27;37916;-55
2022/06/30 10:14:17;;;;;;;;;;;27.10;93.20;;;;;;5084948;28;38145;-55
2022/06/30 10:16:46;;;;;;;;;;;27.00;93.10;;;;;;5084395;27;37692;-56
2022/06/30 10:19:13;;;;;;;;;;;27.00;93.10;;;;;;5084776;27;36348;-55
2022/06/30 10:21:41;;;;;;;;;;;27.00;94.10;;;;;;5085877;27;38086;-55
2022/06/30 10:24:09;;;;;;;;;;;27.10;92.40;;;;;;5085001;27;39525;-55
2022/06/30 10:29:21;;;;;;;;;;;27.20;91.20;;;;;;5083444;28;37708;-55
2022/06/30 10:31:52;;;;;;;;;;;27.30;91.50;;;;;;5082966;27;37437;-55
2022/06/30 10:34:21;;;;;;;;;;;27.30;92.00;;;;;;5083440;27;37379;-55
2022/06/30 10:36:51;;;;;;;;;;;27.40;92.40;;;;;;5083875;27;36287;-55
2022/06/30 10:39:21;;;;;;;;;;;27.40;91.20;;;;;;5083784;27;36528;-55
2022/06/30 10:41:48;;;;;;;;;;;27.50;91.70;;;;;;5085234;28;36555;-55
2022/06/30 10:44:20;;;;;;;;;;;27.60;92.20;;;;;;5080720;27;38549;-55
2022/06/30 10:47:05;;;;;;;;;;;27.70;91.80;;;;;;5084026;27;35716;-55
2022/06/30 10:49:33;;;;;;;;;;;27.70;91.30;;;;;;5084249;27;36713;-55
2022/06/30 10:52:15;;;;;;;;;;;27.50;91.00;;;;;;5083599;27;36586;-55
2022/06/30 10:54:44;;;;;;;;;;;27.30;90.80;;;;;;5083551;27;39513;-55
2022/06/30 10:57:12;;;;;;;;;;;27.10;91.70;;;;;;5082924;27;36492;-55
2022/06/30 10:59:41;;;;;;;;;;;27.00;91.20;;;;;;5081233;27;38419;-55
2022/06/30 11:02:23;;;;;;;;;;;27.00;90.70;;;;;;5082414;27;36285;-55
2022/06/30 11:04:51;;;;;;;;;;;27.10;92.50;;;;;;5083846;27;38974;-55
2022/06/30 11:07:20;;;;;;;;;;;27.30;91.40;;;;;;5084005;28;38114;-55
2022/06/30 11:10:04;;;;;;;;;;;27.30;91.20;;;;;;5083028;27;37162;-55
2022/06/30 11:12:50;;;;;;;;;;;27.40;91.40;;;;;;5080871;27;37774;-55
2022/06/30 11:15:17;;;;;;;;;;;27.40;91.10;;;;;;5082041;28;37981;-55
2022/06/30 11:17:46;;;;;;;;;;;27.20;91.00;;;;;;5081280;27;37002;-55
2022/06/30 11:20:14;;;;;;;;;;;27.10;91.40;;;;;;5083486;28;36897;-55
2022/06/30 11:22:42;;;;;;;;;;;27.10;91.30;;;;;;5083799;27;38540;-55
2022/06/30 11:25:10;;;;;;;;;;;27.10;91.70;;;;;;5082718;27;38778;-55
2022/06/30 11:27:38;;;;;;;;;;;27.10;91.90;;;;;;5082699;27;39162;-55
2022/06/30 11:30:06;;;;;;;;;;;27.00;91.90;;;;;;5083452;27;36026;-55
2022/06/30 11:32:33;;;;;;;;;;;27.00;92.50;;;;;;5083160;28;38664;-55
2022/06/30 11:35:02;;;;;;;;;;;27.10;93.60;;;;;;5082846;27;38512;-55
2022/06/30 11:37:33;;;;;;;;;;;27.20;92.80;;;;;;5082932;27;40621;-55
2022/06/30 11:40:00;;;;;;;;;;;27.30;93.30;;;;;;5083010;27;36488;-55
2022/06/30 11:42:27;;;;;;;;;;;27.40;93.30;;;;;;5083412;28;36570;-55
2022/06/30 11:44:55;;;;;;;;;;;27.40;92.80;;;;;;5083352;27;39690;-56
2022/06/30 11:47:23;;;;;;;;;;;27.40;93.10;;;;;;5083203;27;37611;-55
2022/06/30 11:49:51;;;;;;;;;;;27.40;92.90;;;;;;5083844;27;35312;-55
2022/06/30 11:52:20;;;;;;;;;;;27.40;92.70;;;;;;5083070;27;39609;-55
2022/06/30 11:54:48;;;;;;;;;;;27.50;92.50;;;;;;5083534;27;38955;-55
2022/06/30 11:57:16;;;;;;;;;;;27.50;93.00;;;;;;5083082;27;37271;-55
2022/06/30 11:59:43;;;;;;;;;;;27.50;92.10;;;;;;5082430;27;37476;-55
2022/06/30 12:02:10;;;;;;;;;;;27.50;92.90;;;;;;5081812;27;38401;-55
2022/06/30 12:04:39;;;;;;;;;;;27.40;91.10;;;;;;5082846;27;37105;-55
2022/06/30 12:07:06;;;;;;;;;;;27.30;92.70;;;;;;5081281;27;37477;-55
2022/06/30 12:09:35;;;;;;;;;;;27.40;93.20;;;;;;5081591;27;36754;-55
2022/06/30 12:12:03;;;;;;;;;;;27.30;93.00;;;;;;5082558;27;39901;-56
2022/06/30 12:14:32;;;;;;;;;;;27.30;92.60;;;;;;5082021;27;38464;-55
2022/06/30 12:16:59;;;;;;;;;;;27.40;92.60;;;;;;5083258;27;37657;-55
2022/06/30 12:19:26;;;;;;;;;;;27.40;91.40;;;;;;5082327;27;36677;-55
2022/06/30 12:21:54;;;;;;;;;;;27.40;91.20;;;;;;5082596;27;36589;-55
2022/06/30 12:24:23;;;;;;;;;;;27.40;91.20;;;;;;5082666;28;38388;-55
2022/06/30 12:26:52;;;;;;;;;;;27.50;90.70;;;;;;5081791;27;38452;-55
2022/06/30 12:29:21;;;;;;;;;;;27.50;90.90;;;;;;5083042;27;38216;-55
2022/06/30 12:31:58;;;;;;;;;;;27.40;89.40;;;;;;5083600;27;37578;-55
2022/06/30 12:34:25;;;;;;;;;;;27.40;86.30;;;;;;5082631;27;38328;-55
2022/06/30 12:36:52;;;;;;;;;;;27.30;88.60;;;;;;5083144;27;39081;-55
2022/06/30 12:39:19;;;;;;;;;;;27.20;87.50;;;;;;5082906;27;37257;-55
2022/06/30 12:41:46;;;;;;;;;;;27.20;88.50;;;;;;5081696;27;37904;-55
2022/06/30 12:44:14;;;;;;;;;;;27.10;85.90;;;;;;5082404;27;38315;-55
2022/06/30 12:46:44;;;;;;;;;;;27.10;88.40;;;;;;5082120;27;37437;-55
2022/06/30 12:49:20;;;;;;;;;;;27.10;88.80;;;;;;5080392;27;37948;-55
2022/06/30 12:51:48;;;;;;;;;;;27.10;88.60;;;;;;5080135;27;38258;-55
2022/06/30 12:54:16;;;;;;;;;;;27.10;86.40;;;;;;5082106;28;38069;-55
2022/06/30 12:56:50;;;;;;;;;;;27.00;86.30;;;;;;5080044;27;38042;-55
2022/06/30 12:59:19;;;;;;;;;;;27.00;88.80;;;;;;5083519;27;37375;-55
2022/06/30 13:01:47;;;;;;;;;;;26.90;92.70;;;;;;5083141;27;38591;-55
2022/06/30 13:04:19;;;;;;;;;;;26.80;94.20;;;;;;5081842;27;38511;-56
2022/06/30 13:06:47;;;;;;;;;;;26.80;95.20;;;;;;5082067;27;39764;-55
2022/06/30 13:09:15;;;;;;;;;;;26.60;95.40;;;;;;5082013;27;37298;-55
2022/06/30 13:11:46;;;;;;;;;;;26.50;95.20;;;;;;5081447;27;36544;-55
2022/06/30 13:14:14;;;;;;;;;;;26.30;95.00;;;;;;5080436;28;38828;-55
2022/06/30 13:16:43;;;;;;;;;;;26.10;94.70;;;;;;5080107;28;38786;-55
2022/06/30 13:19:10;;;;;;;;;;;25.90;94.40;;;;;;5080084;27;33796;-55
2022/06/30 13:21:38;;;;;;;;;;;25.80;93.90;;;;;;5079696;28;37428;-55
2022/06/30 13:24:06;;;;;;;;;;;25.70;94.00;;;;;;5081003;28;38073;-55
2022/06/30 13:26:33;;;;;;;;;;;25.70;94.90;;;;;;5080515;27;38648;-55
2022/06/30 13:29:01;;;;;;;;;;;25.60;94.70;;;;;;5081591;28;36138;-55
2022/06/30 13:31:31;;;;;;;;;;;25.60;94.70;;;;;;5081445;27;38351;-55
2022/06/30 13:34:00;;;;;;;;;;;25.60;94.90;;;;;;5081108;28;37146;-55
2022/06/30 13:36:29;;;;;;;;;;;25.50;94.80;;;;;;5080991;27;37872;-56
2022/06/30 13:38:57;;;;;;;;;;;25.50;95.00;;;;;;5080647;27;36396;-55
2022/06/30 13:41:24;;;;;;;;;;;25.50;94.60;;;;;;5080552;27;36504;-55
2022/06/30 13:43:51;;;;;;;;;;;25.40;94.50;;;;;;5079756;27;38562;-55
2022/06/30 13:46:18;;;;;;;;;;;25.40;94.90;;;;;;5080520;28;38281;-55
2022/06/30 13:48:45;;;;;;;;;;;25.40;95.00;;;;;;5080243;27;36442;-55
2022/06/30 13:51:13;;;;;;;;;;;25.40;94.90;;;;;;5080625;27;37429;-55
2022/06/30 13:53:44;;;;;;;;;;;25.30;96.20;;;;;;5080744;28;38165;-55
2022/06/30 13:56:11;;;;;;;;;;;25.20;97.30;;;;;;5079979;27;38103;-55
2022/06/30 13:58:38;;;;;;;;;;;25.20;96.90;;;;;;5079380;27;37692;-55
2022/06/30 14:01:06;;;;;;;;;;;25.00;97.00;;;;;;5079805;27;36611;-55
2022/06/30 14:03:33;;;;;;;;;;;25.00;96.90;;;;;;5080416;27;39190;-55
2022/06/30 14:06:00;;;;;;;;;;;24.90;97.00;;;;;;5080448;27;37671;-55
2022/06/30 14:08:29;;;;;;;;;;;24.90;97.40;;;;;;5080780;27;35244;-55
2022/06/30 14:10:56;;;;;;;;;;;24.80;97.40;;;;;;5080757;27;36381;-55
2022/06/30 14:13:23;;;;;;;;;;;24.80;97.80;;;;;;5081508;27;38592;-55
2022/06/30 14:15:50;;;;;;;;;;;24.80;97.20;;;;;;5081321;27;37232;-55
2022/06/30 14:18:17;;;;;;;;;;;24.80;96.60;;;;;;5081490;27;36292;-55
2022/06/30 14:20:44;;;;;;;;;;;24.70;95.00;;;;;;5080027;28;38341;-55
2022/06/30 14:23:12;;;;;;;;;;;24.70;95.00;;;;;;5081109;27;40119;-55
2022/06/30 14:25:40;;;;;;;;;;;24.70;95.20;;;;;;5080428;27;38133;-55
2022/06/30 14:28:07;;;;;;;;;;;24.70;95.00;;;;;;5080609;27;37009;-55
2022/06/30 14:30:34;;;;;;;;;;;24.70;94.10;;;;;;5080878;27;38855;-55
2022/06/30 14:33:02;;;;;;;;;;;24.70;94.70;;;;;;5080573;28;39177;-55
2022/06/30 14:35:29;;;;;;;;;;;24.60;94.90;;;;;;5079921;28;38367;-55
2022/06/30 14:37:57;;;;;;;;;;;24.60;95.40;;;;;;5077445;27;37320;-55
2022/06/30 14:40:24;;;;;;;;;;;24.70;95.60;;;;;;5078650;27;37561;-55
2022/06/30 14:42:53;;;;;;;;;;;24.60;95.70;;;;;;5080589;27;40531;-62